Time;durP1;ratioP1;P1;durP2;ratioP2;P2;SDS_P1;SDS_P2;PMS_P1;PMS_P2;Temp;Humidity;BMP_temperature;BMP_pressure;BME280_temperature;BME280_humidity;BME280_pressure;Samples;Min_cycle;Max_cycle;Signal;HPM_P1;HPM_P2
2022/12/31 00:01:23;;;;;;;10.05;2.60;;;11.20;99.90;;;;;;5029754;28;20095;-88
2022/12/31 00:03:49;;;;;;;13.23;2.70;;;11.10;99.90;;;;;;5045627;28;20067;-89
2022/12/31 00:06:30;;;;;;;15.30;3.00;;;11.10;99.90;;;;;;5044075;28;20049;-88
2022/12/31 00:08:59;;;;;;;10.27;2.70;;;11.10;99.90;;;;;;5044510;28;20124;-89
2022/12/31 00:11:26;;;;;;;12.68;2.60;;;11.10;99.90;;;;;;5046750;28;20037;-89
2022/12/31 00:13:52;;;;;;;12.65;3.05;;;11.10;99.90;;;;;;5043035;28;20075;-88
2022/12/31 00:16:24;;;;;;;10.35;2.80;;;11.10;99.90;;;;;;5028146;28;20037;-88
2022/12/31 00:18:53;;;;;;;9.77;2.67;;;11.10;99.90;;;;;;5047053;28;20036;-88
2022/12/31 00:21:19;;;;;;;11.95;2.88;;;11.20;99.90;;;;;;5046095;28;20041;-89
2022/12/31 00:23:45;;;;;;;11.73;3.10;;;11.20;99.90;;;;;;5029273;28;20500;-89
2022/12/31 00:26:26;;;;;;;11.68;2.85;;;11.20;99.90;;;;;;5047216;28;20037;-88
2022/12/31 00:28:53;;;;;;;10.35;2.90;;;11.20;99.90;;;;;;5047341;28;20564;-88
2022/12/31 00:31:31;;;;;;;16.45;3.97;;;11.20;99.90;;;;;;5022287;28;20045;-88
2022/12/31 00:33:58;;;;;;;13.57;3.83;;;11.20;99.90;;;;;;5029199;28;20540;-88
2022/12/31 00:36:33;;;;;;;13.20;3.60;;;11.20;99.90;;;;;;5045723;28;20047;-89
2022/12/31 00:39:01;;;;;;;12.77;3.83;;;11.30;99.90;;;;;;5030384;28;20049;-88
2022/12/31 00:41:27;;;;;;;16.90;3.85;;;11.30;99.90;;;;;;5045651;28;20449;-88
2022/12/31 00:43:54;;;;;;;15.18;3.75;;;11.60;99.90;;;;;;5027943;28;20033;-88
2022/12/31 00:46:21;;;;;;;17.58;4.10;;;11.20;99.90;;;;;;5044176;28;20076;-88
2022/12/31 00:48:46;;;;;;;15.70;3.88;;;11.20;99.90;;;;;;5029362;28;20610;-89
2022/12/31 00:51:18;;;;;;;15.60;4.38;;;11.20;99.90;;;;;;5029795;28;20385;-88
2022/12/31 00:53:44;;;;;;;17.63;4.25;;;11.10;99.90;;;;;;5029324;28;20105;-88
2022/12/31 00:56:16;;;;;;;16.25;3.80;;;11.20;99.90;;;;;;5043175;28;20119;-88
2022/12/31 00:58:43;;;;;;;14.32;3.85;;;11.20;99.90;;;;;;5046570;28;20049;-89
2022/12/31 01:01:14;;;;;;;18.55;4.47;;;11.20;99.90;;;;;;5045512;28;20037;-88
2022/12/31 01:03:40;;;;;;;16.63;3.78;;;11.20;99.90;;;;;;5044187;28;20048;-88
2022/12/31 01:06:06;;;;;;;20.77;4.40;;;11.20;99.90;;;;;;5043765;28;20040;-89
2022/12/31 01:08:32;;;;;;;19.25;4.10;;;11.10;99.90;;;;;;5045070;28;20037;-89
2022/12/31 01:13:54;;;;;;;15.50;4.13;;;11.20;99.90;;;;;;5043979;28;20044;-89
2022/12/31 01:16:26;;;;;;;14.02;3.67;;;11.10;99.90;;;;;;5057268;28;20033;-89
2022/12/31 01:18:52;;;;;;;19.80;4.35;;;11.10;99.90;;;;;;5042627;28;20041;-88
2022/12/31 01:21:19;;;;;;;16.95;3.90;;;11.10;99.90;;;;;;5043854;28;20047;-89
2022/12/31 01:23:45;;;;;;;17.38;4.15;;;11.10;99.90;;;;;;5047203;28;20437;-88
2022/12/31 01:26:12;;;;;;;14.32;4.13;;;11.10;99.90;;;;;;5029410;28;20045;-88
2022/12/31 01:28:38;;;;;;;17.58;4.97;;;11.10;99.90;;;;;;5047142;28;20106;-89
2022/12/31 01:31:06;;;;;;;17.95;4.50;;;11.10;99.90;;;;;;5039182;28;20049;-88
2022/12/31 01:33:32;;;;;;;13.80;4.00;;;11.10;99.90;;;;;;5028522;28;20049;-88
2022/12/31 01:36:04;;;;;;;15.18;4.18;;;11.10;99.90;;;;;;5030933;28;20049;-89
2022/12/31 01:38:29;;;;;;;16.42;4.20;;;11.20;99.90;;;;;;5030415;28;20107;-88
2022/12/31 01:40:55;;;;;;;14.95;4.43;;;11.10;99.90;;;;;;5032743;28;20450;-89
2022/12/31 01:43:21;;;;;;;12.45;3.63;;;11.10;99.90;;;;;;5032824;28;20393;-88
2022/12/31 01:45:52;;;;;;;17.00;4.38;;;11.20;99.90;;;;;;5048863;28;20035;-89
2022/12/31 01:48:25;;;;;;;15.25;3.97;;;11.10;99.90;;;;;;5031654;28;20048;-89
2022/12/31 01:50:52;;;;;;;17.95;4.55;;;11.10;99.90;;;;;;5047555;28;20108;-89
2022/12/31 01:53:18;;;;;;;16.80;3.67;;;11.20;99.90;;;;;;5023710;28;20524;-89
2022/12/31 01:55:54;;;;;;;14.00;3.65;;;11.10;99.90;;;;;;5031402;28;20498;-89
2022/12/31 01:58:25;;;;;;;13.18;3.60;;;11.10;99.90;;;;;;5047768;28;20049;-89
2022/12/31 02:00:52;;;;;;;14.18;3.65;;;11.10;99.90;;;;;;5046802;28;20116;-89
2022/12/31 02:03:21;;;;;;;11.93;3.25;;;11.10;99.90;;;;;;5038296;28;20493;-89
2022/12/31 02:05:55;;;;;;;13.25;3.35;;;11.10;99.90;;;;;;5030927;28;20049;-89
2022/12/31 02:08:21;;;;;;;9.93;3.00;;;11.20;99.90;;;;;;5047882;28;20044;-89
2022/12/31 02:10:47;;;;;;;12.43;3.30;;;11.20;99.90;;;;;;5049223;28;20093;-89
2022/12/31 02:13:13;;;;;;;12.27;3.25;;;11.10;99.90;;;;;;5034097;28;20421;-88
2022/12/31 02:15:45;;;;;;;12.43;3.30;;;11.10;99.90;;;;;;5037871;28;20052;-88
2022/12/31 02:18:27;;;;;;;15.40;3.50;;;11.00;99.90;;;;;;5052935;28;20099;-87
2022/12/31 02:20:52;;;;;;;10.45;3.03;;;11.00;99.90;;;;;;5035070;28;20490;-88
2022/12/31 02:23:27;;;;;;;11.23;3.53;;;11.00;99.90;;;;;;5051400;28;20047;-88
2022/12/31 02:26:30;;;;;;;11.63;3.47;;;11.00;99.90;;;;;;5050825;28;20112;-88
2022/12/31 02:29:33;;;;;;;11.88;3.42;;;11.00;99.90;;;;;;5047500;28;20032;-89
2022/12/31 02:32:16;;;;;;;12.43;3.63;;;11.00;99.90;;;;;;5065301;28;20521;-88
2022/12/31 02:34:57;;;;;;;8.98;3.35;;;11.00;99.90;;;;;;5050016;28;20110;-88
2022/12/31 02:37:25;;;;;;;11.02;3.15;;;11.00;99.90;;;;;;5034449;28;20045;-89
2022/12/31 02:39:51;;;;;;;11.27;3.53;;;10.00;99.90;;;;;;5045295;28;20036;-89
2022/12/31 02:42:17;;;;;;;10.48;2.80;;;11.00;99.90;;;;;;5049503;28;20041;-89
2022/12/31 02:44:43;;;;;;;11.00;3.50;;;11.00;99.90;;;;;;5034582;28;20494;-89
2022/12/31 02:47:09;;;;;;;10.27;3.30;;;11.00;99.90;;;;;;5035435;28;20045;-89
2022/12/31 02:50:12;;;;;;;9.63;3.22;;;11.00;99.90;;;;;;5034867;28;20095;-89
2022/12/31 02:53:02;;;;;;;11.82;3.03;;;11.00;99.90;;;;;;5049765;28;20056;-89
2022/12/31 02:55:40;;;;;;;10.63;2.78;;;11.00;99.90;;;;;;5031590;28;20048;-89
2022/12/31 02:58:11;;;;;;;8.65;2.90;;;11.00;99.90;;;;;;5033392;28;20413;-89
2022/12/31 03:03:28;;;;;;;11.32;3.20;;;11.00;99.90;;;;;;5045092;28;20135;-89
2022/12/31 03:05:55;;;;;;;9.63;2.70;;;11.00;99.90;;;;;;5032912;28;20032;-89
2022/12/31 03:08:22;;;;;;;8.25;2.53;;;11.00;99.90;;;;;;5031968;28;20470;-89
2022/12/31 03:10:49;;;;;;;9.05;2.63;;;11.40;99.90;;;;;;5043328;28;20382;-89
2022/12/31 03:13:15;;;;;;;8.75;2.55;;;11.00;99.90;;;;;;5046055;28;20041;-89
2022/12/31 03:15:41;;;;;;;6.93;2.15;;;11.00;99.90;;;;;;5028156;28;20039;-89
2022/12/31 03:18:08;;;;;;;9.38;2.55;;;10.90;99.90;;;;;;5029461;28;20168;-89
2022/12/31 03:23:33;;;;;;;8.50;2.13;;;10.90;99.90;;;;;;5044949;28;20405;-89
2022/12/31 03:26:00;;;;;;;9.45;2.30;;;10.90;99.90;;;;;;5051373;28;20040;-89
2022/12/31 03:28:28;;;;;;;8.70;2.30;;;10.90;99.90;;;;;;5050094;28;20056;-89
2022/12/31 03:30:59;;;;;;;9.50;2.30;;;10.90;99.90;;;;;;5047717;28;20229;-89
2022/12/31 03:33:28;;;;;;;7.38;2.00;;;10.90;99.90;;;;;;5029917;28;20528;-89
2022/12/31 03:35:54;;;;;;;10.48;2.22;;;10.80;99.90;;;;;;5047327;28;20048;-89
2022/12/31 03:38:20;;;;;;;7.95;1.70;;;10.70;99.90;;;;;;5047720;28;20041;-89
2022/12/31 03:40:49;;;;;;;8.68;1.85;;;10.70;99.90;;;;;;5030187;28;20037;-90
2022/12/31 03:43:15;;;;;;;7.53;1.90;;;10.70;99.90;;;;;;5045954;28;20495;-89
2022/12/31 03:45:41;;;;;;;7.82;1.63;;;10.80;99.90;;;;;;5048346;28;20174;-89
2022/12/31 03:48:09;;;;;;;8.52;1.70;;;10.70;99.90;;;;;;5049178;28;20102;-89
2022/12/31 03:50:35;;;;;;;6.68;1.77;;;10.70;99.90;;;;;;5049899;28;20037;-89
2022/12/31 03:53:01;;;;;;;7.53;1.75;;;10.70;99.90;;;;;;5046905;28;20077;-89
2022/12/31 03:55:27;;;;;;;6.82;1.40;;;10.70;99.90;;;;;;5028415;28;20069;-89
2022/12/31 03:57:53;;;;;;;7.75;1.83;;;10.70;99.90;;;;;;5044797;28;20049;-89
2022/12/31 04:00:20;;;;;;;7.03;1.70;;;10.60;99.90;;;;;;5045828;28;20048;-89
2022/12/31 04:02:47;;;;;;;5.25;1.48;;;10.60;99.90;;;;;;5048086;28;20501;-89
2022/12/31 04:05:14;;;;;;;8.50;1.63;;;10.60;99.90;;;;;;5028314;28;20042;-89
2022/12/31 04:07:40;;;;;;;5.80;1.42;;;10.60;99.90;;;;;;5031205;28;20072;-89
2022/12/31 04:10:08;;;;;;;7.50;1.60;;;10.60;99.90;;;;;;5043037;28;20072;-89
2022/12/31 04:12:34;;;;;;;6.70;1.65;;;10.50;99.90;;;;;;5034501;28;20482;-89
2022/12/31 04:14:59;;;;;;;6.00;1.60;;;10.50;99.90;;;;;;5052342;28;20053;-88
2022/12/31 04:17:25;;;;;;;7.55;1.55;;;10.50;99.90;;;;;;5032642;28;20087;-89
2022/12/31 04:19:51;;;;;;;8.18;1.73;;;10.50;99.90;;;;;;5042524;28;20471;-89
2022/12/31 04:22:17;;;;;;;6.95;1.73;;;10.50;99.90;;;;;;5048086;28;20040;-89
2022/12/31 04:24:43;;;;;;;9.65;2.05;;;10.50;99.90;;;;;;5046895;28;20037;-89
2022/12/31 04:27:13;;;;;;;8.27;1.58;;;10.50;99.90;;;;;;5030975;28;20404;-89
2022/12/31 04:29:38;;;;;;;7.38;1.52;;;10.50;99.90;;;;;;5049323;28;20048;-89
2022/12/31 04:32:05;;;;;;;9.10;1.63;;;10.50;99.90;;;;;;5034321;28;20041;-88
2022/12/31 04:34:31;;;;;;;6.30;1.55;;;10.50;99.90;;;;;;5049559;28;20448;-89
2022/12/31 04:36:58;;;;;;;8.98;1.70;;;10.50;99.90;;;;;;5029496;28;20041;-88
2022/12/31 04:39:24;;;;;;;8.25;1.70;;;10.50;99.90;;;;;;5023557;28;20041;-88
2022/12/31 04:41:50;;;;;;;6.20;1.50;;;10.50;99.90;;;;;;5045001;28;20036;-89
2022/12/31 04:44:16;;;;;;;7.70;1.70;;;10.50;99.90;;;;;;5048580;28;20564;-89
2022/12/31 04:46:41;;;;;;;6.60;1.55;;;10.50;99.90;;;;;;5040794;28;20041;-88
2022/12/31 04:49:07;;;;;;;4.45;1.50;;;10.50;99.90;;;;;;5061844;28;20615;-89
2022/12/31 04:51:33;;;;;;;6.22;1.60;;;10.50;99.90;;;;;;5014483;28;20043;-88
2022/12/31 04:53:59;;;;;;;5.47;1.70;;;10.40;99.90;;;;;;5046514;28;20045;-88
2022/12/31 04:56:26;;;;;;;6.93;1.50;;;10.40;99.90;;;;;;5044719;28;20051;-88
2022/12/31 04:58:52;;;;;;;7.30;1.80;;;10.40;99.90;;;;;;5031970;28;20120;-88
2022/12/31 05:01:18;;;;;;;6.50;1.80;;;10.30;99.90;;;;;;5029237;28;20120;-88
2022/12/31 05:03:44;;;;;;;5.80;1.65;;;10.40;99.90;;;;;;5014462;28;20036;-88
2022/12/31 05:06:14;;;;;;;7.07;1.80;;;10.40;99.90;;;;;;5029459;28;20139;-88
2022/12/31 05:08:39;;;;;;;7.35;1.90;;;10.40;99.90;;;;;;5048281;28;20071;-89
2022/12/31 05:11:05;;;;;;;9.38;2.08;;;10.40;99.90;;;;;;5032690;28;20494;-88
2022/12/31 05:13:32;;;;;;;9.25;2.30;;;10.40;99.90;;;;;;5046204;28;20068;-89
2022/12/31 05:15:57;;;;;;;7.80;2.05;;;10.30;99.90;;;;;;5014418;28;20041;-89
2022/12/31 05:18:23;;;;;;;8.38;2.03;;;10.40;99.90;;;;;;5031144;28;20056;-89
2022/12/31 05:20:49;;;;;;;8.25;2.10;;;10.40;99.90;;;;;;5048015;28;20044;-89
2022/12/31 05:23:16;;;;;;;7.95;2.13;;;10.40;99.90;;;;;;5048450;28;20052;-89
2022/12/31 05:25:43;;;;;;;8.68;2.20;;;10.30;99.90;;;;;;5048528;28;20072;-89
2022/12/31 05:28:09;;;;;;;7.50;2.08;;;10.40;99.90;;;;;;5031642;28;20041;-89
2022/12/31 05:30:35;;;;;;;7.70;2.20;;;10.30;99.90;;;;;;5046353;28;20090;-89
2022/12/31 05:33:01;;;;;;;11.18;2.13;;;10.30;99.90;;;;;;5030897;28;20041;-89
2022/12/31 05:35:27;;;;;;;9.25;2.13;;;10.30;99.90;;;;;;5020946;28;20048;-89
2022/12/31 05:37:53;;;;;;;7.35;1.95;;;10.30;99.90;;;;;;5043785;28;20486;-88
2022/12/31 05:40:18;;;;;;;9.40;2.08;;;10.30;99.90;;;;;;5044441;28;20498;-88
2022/12/31 05:42:44;;;;;;;8.15;1.90;;;10.40;99.90;;;;;;5024750;28;20041;-89
2022/12/31 05:45:14;;;;;;;8.15;1.98;;;10.30;99.90;;;;;;5029736;28;20489;-88
2022/12/31 05:47:40;;;;;;;9.10;2.00;;;10.30;99.90;;;;;;5046132;28;20084;-88
2022/12/31 05:50:12;;;;;;;7.28;1.98;;;10.30;99.90;;;;;;5044007;28;20037;-88
2022/12/31 05:52:37;;;;;;;9.68;2.10;;;10.40;99.90;;;;;;5046214;28;20098;-89
2022/12/31 05:55:04;;;;;;;9.90;2.00;;;10.30;99.90;;;;;;5032500;28;20050;-89
2022/12/31 05:57:30;;;;;;;9.30;2.20;;;10.30;99.90;;;;;;5014457;28;20072;-89
2022/12/31 05:59:55;;;;;;;10.00;2.05;;;10.30;99.90;;;;;;5048879;28;20060;-89
2022/12/31 06:02:22;;;;;;;7.78;2.15;;;10.40;99.90;;;;;;5048579;28;20274;-89
2022/12/31 06:04:48;;;;;;;7.45;2.08;;;10.40;99.90;;;;;;5034244;28;20051;-89
2022/12/31 06:07:14;;;;;;;7.85;1.80;;;10.40;99.90;;;;;;5047612;28;20040;-89
2022/12/31 06:09:40;;;;;;;9.80;2.05;;;10.40;99.90;;;;;;5034159;28;20047;-89
2022/12/31 06:12:06;;;;;;;8.80;2.00;;;10.40;99.90;;;;;;5046441;28;20037;-88
2022/12/31 06:14:32;;;;;;;6.85;2.00;;;10.40;99.90;;;;;;5045746;28;20049;-88
2022/12/31 06:16:57;;;;;;;5.70;1.60;;;10.40;99.90;;;;;;5042686;28;20422;-89
2022/12/31 06:19:23;;;;;;;6.72;1.80;;;10.40;99.90;;;;;;5045013;28;20497;-89
2022/12/31 06:21:49;;;;;;;6.78;1.90;;;10.40;99.90;;;;;;5044160;28;20044;-88
2022/12/31 06:24:15;;;;;;;7.07;1.67;;;10.30;99.90;;;;;;5047324;28;20041;-88
2022/12/31 06:26:41;;;;;;;8.73;1.90;;;10.30;99.90;;;;;;5049445;28;20040;-88
2022/12/31 06:29:07;;;;;;;7.13;1.70;;;10.30;99.90;;;;;;5032207;28;20494;-88
2022/12/31 06:31:33;;;;;;;6.25;1.85;;;10.30;99.90;;;;;;5052544;28;20045;-88
2022/12/31 06:33:59;;;;;;;8.20;1.55;;;10.20;99.90;;;;;;5035955;28;20052;-88
2022/12/31 06:36:26;;;;;;;6.32;1.80;;;10.20;99.90;;;;;;5038048;28;20045;-88
2022/12/31 06:38:52;;;;;;;6.88;1.65;;;10.20;99.90;;;;;;5037687;28;20123;-87
2022/12/31 06:41:17;;;;;;;5.78;1.40;;;10.20;99.90;;;;;;5027838;28;20165;-87
2022/12/31 06:43:43;;;;;;;7.10;1.50;;;10.20;99.90;;;;;;5054479;28;20033;-87
2022/12/31 06:46:12;;;;;;;6.72;1.42;;;10.10;99.90;;;;;;5040983;28;20042;-86
2022/12/31 06:48:38;;;;;;;7.63;1.88;;;10.10;99.90;;;;;;5058771;28;20515;-86
2022/12/31 06:51:11;;;;;;;4.70;1.20;;;10.10;99.90;;;;;;5043922;28;20038;-87
2022/12/31 06:53:37;;;;;;;5.03;1.15;;;10.10;99.90;;;;;;5048459;28;20051;-88
2022/12/31 06:56:13;;;;;;;3.85;1.20;;;10.00;99.90;;;;;;5032386;28;20037;-87
2022/12/31 06:58:40;;;;;;;4.65;1.40;;;10.00;99.90;;;;;;5048065;28;20124;-87
2022/12/31 07:01:33;;;;;;;5.65;1.42;;;10.00;99.90;;;;;;5031689;28;20394;-87
2022/12/31 07:04:19;;;;;;;5.20;1.90;;;10.00;99.90;;;;;;5051066;28;20037;-87
2022/12/31 07:06:56;;;;;;;6.85;2.25;;;10.00;99.90;;;;;;5052284;28;20049;-88
2022/12/31 07:09:47;;;;;;;10.20;2.50;;;10.00;99.90;;;;;;5043946;28;20120;-88
2022/12/31 07:12:54;;;;;;;7.68;2.75;;;10.00;99.90;;;;;;5032914;28;20053;-88
2022/12/31 07:15:49;;;;;;;6.80;2.85;;;10.10;99.90;;;;;;5024223;28;20060;-88
2022/12/31 07:18:24;;;;;;;8.55;2.80;;;10.10;99.90;;;;;;5044049;28;20049;-86
2022/12/31 07:20:49;;;;;;;8.55;2.88;;;10.10;99.90;;;;;;5044435;28;20064;-88
2022/12/31 07:23:15;;;;;;;9.13;3.00;;;10.10;99.90;;;;;;5028664;28;20036;-88
2022/12/31 07:25:54;;;;;;;7.75;2.90;;;10.10;99.90;;;;;;5032191;28;20041;-87
2022/12/31 07:28:36;;;;;;;7.07;2.42;;;10.10;99.90;;;;;;5048171;28;20500;-88
2022/12/31 07:31:23;;;;;;;6.40;2.38;;;10.10;99.90;;;;;;5046513;28;20041;-87
2022/12/31 07:33:52;;;;;;;6.93;2.20;;;10.10;99.90;;;;;;5047903;28;20048;-88
2022/12/31 07:36:35;;;;;;;6.90;2.40;;;10.10;99.90;;;;;;5050423;28;20091;-88
2022/12/31 07:39:06;;;;;;;6.78;2.20;;;10.10;99.90;;;;;;5031829;28;20044;-88
2022/12/31 07:41:57;;;;;;;7.72;2.20;;;10.10;99.90;;;;;;5048290;28;20049;-87
2022/12/31 07:44:25;;;;;;;8.95;2.30;;;10.10;99.90;;;;;;5032184;28;20385;-87
2022/12/31 07:47:00;;;;;;;7.45;2.20;;;10.10;99.90;;;;;;5033766;28;20045;-87
2022/12/31 07:49:28;;;;;;;6.32;2.10;;;10.10;99.90;;;;;;5046520;28;20041;-87
2022/12/31 07:51:54;;;;;;;6.38;2.00;;;10.10;99.90;;;;;;5047257;28;21286;-88
2022/12/31 07:54:20;;;;;;;9.40;2.00;;;10.10;99.90;;;;;;5027634;28;20053;-87
2022/12/31 07:56:48;;;;;;;7.40;2.00;;;10.10;99.90;;;;;;5041561;28;20128;-86
2022/12/31 07:59:22;;;;;;;6.95;2.10;;;10.10;99.90;;;;;;5029119;28;20511;-87
2022/12/31 08:01:48;;;;;;;5.75;1.80;;;10.10;99.90;;;;;;5042320;28;20106;-87
2022/12/31 08:04:38;;;;;;;6.28;1.90;;;10.10;99.90;;;;;;5054274;28;20093;-87
2022/12/31 08:07:28;;;;;;;5.47;1.95;;;10.10;99.90;;;;;;5042108;28;20045;-86
2022/12/31 08:09:56;;;;;;;6.10;2.10;;;10.10;99.90;;;;;;5062293;28;20068;-88
2022/12/31 08:12:26;;;;;;;5.63;1.90;;;10.10;99.90;;;;;;5044257;28;20052;-88
2022/12/31 08:14:52;;;;;;;6.10;2.08;;;10.10;99.90;;;;;;5052656;28;20032;-88
2022/12/31 08:17:18;;;;;;;5.60;2.10;;;10.10;99.90;;;;;;5048254;28;20716;-87
2022/12/31 08:19:45;;;;;;;5.55;2.10;;;10.10;99.90;;;;;;5044797;28;20041;-88
2022/12/31 08:22:19;;;;;;;6.55;2.08;;;10.10;99.90;;;;;;5046400;28;20496;-88
2022/12/31 08:25:02;;;;;;;7.63;2.70;;;10.10;99.90;;;;;;5049867;28;20448;-88
2022/12/31 08:27:44;;;;;;;6.00;2.15;;;10.10;99.90;;;;;;5053731;28;20052;-87
2022/12/31 08:30:14;;;;;;;6.22;2.35;;;10.10;99.90;;;;;;5049026;28;20080;-86
2022/12/31 08:32:45;;;;;;;5.82;2.13;;;10.10;99.90;;;;;;5045539;28;20074;-87
2022/12/31 08:35:35;;;;;;;7.25;2.10;;;10.20;99.90;;;;;;5030867;28;20687;-88
2022/12/31 08:38:22;;;;;;;6.38;2.28;;;10.20;99.90;;;;;;5067622;28;20048;-88
2022/12/31 08:40:47;;;;;;;6.13;2.30;;;10.20;99.90;;;;;;5047905;28;20490;-88
2022/12/31 08:43:21;;;;;;;6.93;2.50;;;10.30;99.90;;;;;;5024812;28;20032;-88
2022/12/31 08:45:50;;;;;;;5.47;2.10;;;10.30;99.90;;;;;;5048100;28;20116;-86
2022/12/31 08:48:39;;;;;;;3.85;1.80;;;10.30;99.90;;;;;;5048753;28;20053;-88
2022/12/31 08:51:08;;;;;;;4.45;1.70;;;10.40;99.90;;;;;;5050776;28;20072;-88
2022/12/31 08:53:34;;;;;;;4.65;1.85;;;10.40;99.90;;;;;;5049387;28;20075;-88
2022/12/31 08:56:15;;;;;;;5.72;1.88;;;10.40;99.90;;;;;;5047280;28;20052;-88
2022/12/31 08:59:22;;;;;;;4.22;1.73;;;10.40;99.90;;;;;;5048796;28;20570;-89
2022/12/31 09:02:17;;;;;;;5.13;1.90;;;10.50;99.90;;;;;;5050056;28;20072;-87
2022/12/31 09:05:04;;;;;;;6.00;2.00;;;10.50;99.90;;;;;;5043714;28;20041;-88
2022/12/31 09:07:56;;;;;;;4.63;2.00;;;10.60;99.90;;;;;;5049251;28;20047;-88
2022/12/31 09:10:30;;;;;;;5.20;2.00;;;10.70;99.90;;;;;;5036885;28;20045;-88
2022/12/31 09:13:17;;;;;;;5.32;2.20;;;11.60;99.90;;;;;;5016475;28;20064;-89
2022/12/31 09:16:06;;;;;;;5.72;2.22;;;10.80;99.90;;;;;;5043036;28;20055;-89
2022/12/31 09:18:38;;;;;;;6.13;2.33;;;10.80;99.90;;;;;;5032474;28;20071;-88
2022/12/31 09:21:04;;;;;;;6.30;2.50;;;10.90;99.90;;;;;;5035638;28;20133;-89
2022/12/31 09:23:30;;;;;;;5.72;2.33;;;10.90;99.90;;;;;;5015095;28;20128;-88
2022/12/31 09:26:07;;;;;;;6.03;2.40;;;11.00;99.90;;;;;;5008564;28;20045;-89
2022/12/31 09:28:49;;;;;;;6.40;2.50;;;11.00;99.90;;;;;;5049748;28;20064;-89
2022/12/31 09:31:25;;;;;;;5.18;1.95;;;11.10;99.90;;;;;;5047586;28;20083;-88
2022/12/31 09:34:00;;;;;;;5.72;2.00;;;11.20;99.90;;;;;;5048591;28;20052;-88
2022/12/31 09:36:34;;;;;;;4.28;1.80;;;11.20;99.90;;;;;;5043099;28;20045;-89
2022/12/31 09:39:36;;;;;;;6.60;2.00;;;11.20;99.90;;;;;;5059321;28;20053;-88
2022/12/31 09:42:16;;;;;;;5.60;1.60;;;11.30;99.90;;;;;;5045536;28;20647;-89
2022/12/31 09:45:09;;;;;;;5.60;1.70;;;11.40;99.90;;;;;;5047572;28;20086;-88
2022/12/31 09:47:52;;;;;;;6.65;1.67;;;11.40;99.90;;;;;;5025097;28;20041;-89
2022/12/31 09:50:18;;;;;;;4.88;1.67;;;11.40;99.90;;;;;;5023519;28;20576;-89
2022/12/31 09:53:05;;;;;;;4.20;1.58;;;11.50;99.90;;;;;;5053720;28;20134;-89
2022/12/31 09:55:55;;;;;;;4.53;1.48;;;11.50;99.90;;;;;;5031835;28;20123;-89
2022/12/31 09:58:57;;;;;;;6.70;1.80;;;11.60;99.90;;;;;;5054584;28;20069;-89
2022/12/31 10:01:33;;;;;;;4.25;1.60;;;11.60;99.90;;;;;;5038880;28;20544;-89
2022/12/31 10:04:32;;;;;;;6.00;1.60;;;11.60;99.90;;;;;;5021061;28;20072;-89
2022/12/31 10:07:14;;;;;;;4.32;1.60;;;11.60;99.90;;;;;;5030820;28;20402;-89
2022/12/31 10:09:52;;;;;;;6.63;1.60;;;11.60;99.90;;;;;;5037822;28;20102;-90
2022/12/31 10:12:55;;;;;;;4.00;1.45;;;11.70;99.90;;;;;;5042487;28;20095;-88
2022/12/31 10:15:27;;;;;;;7.38;1.70;;;11.20;99.90;;;;;;5026597;28;20048;-88
2022/12/31 10:18:30;;;;;;;4.80;1.63;;;11.80;99.90;;;;;;5029196;28;20053;-88
2022/12/31 10:21:34;;;;;;;5.20;1.50;;;11.80;99.90;;;;;;5049438;28;20049;-89
2022/12/31 10:24:27;;;;;;;10.07;1.70;;;11.90;99.90;;;;;;5047499;28;20110;-89
2022/12/31 10:27:15;;;;;;;6.13;1.85;;;12.00;99.90;;;;;;5047104;28;20078;-89
2022/12/31 10:29:57;;;;;;;5.53;1.45;;;12.00;99.90;;;;;;5031835;28;20140;-89
2022/12/31 10:32:43;;;;;;;7.73;1.70;;;12.10;99.90;;;;;;5038557;28;20053;-88
2022/12/31 10:35:12;;;;;;;7.20;1.67;;;12.20;99.90;;;;;;5050505;28;20302;-88
2022/12/31 10:37:59;;;;;;;6.90;1.80;;;12.20;99.90;;;;;;5048726;28;20041;-89
2022/12/31 10:40:55;;;;;;;5.55;1.60;;;12.30;99.90;;;;;;5032673;28;20398;-89
2022/12/31 10:43:50;;;;;;;9.55;1.98;;;12.30;99.90;;;;;;5040275;28;20037;-89
2022/12/31 10:46:33;;;;;;;6.93;1.63;;;12.40;99.90;;;;;;5050062;28;20289;-91
2022/12/31 10:49:14;;;;;;;5.95;1.92;;;12.40;99.90;;;;;;5050066;28;20048;-89
2022/12/31 10:52:12;;;;;;;9.30;1.48;;;12.40;99.90;;;;;;5050886;28;20112;-89
2022/12/31 10:54:54;;;;;;;8.18;1.77;;;12.50;99.90;;;;;;5038181;28;20045;-89
2022/12/31 10:57:50;;;;;;;8.52;2.13;;;12.50;99.90;;;;;;5060893;28;20049;-89
2022/12/31 11:00:21;;;;;;;5.28;1.35;;;12.60;99.90;;;;;;5033170;28;20531;-89
2022/12/31 11:03:08;;;;;;;7.57;1.80;;;12.60;99.90;;;;;;5028695;28;20503;-89
2022/12/31 11:06:14;;;;;;;8.75;1.75;;;12.60;99.90;;;;;;5034520;28;20537;-88
2022/12/31 11:08:51;;;;;;;9.20;1.88;;;12.60;99.90;;;;;;5051858;28;20161;-89
2022/12/31 11:11:23;;;;;;;8.45;2.03;;;12.60;99.90;;;;;;5035083;28;20033;-89
2022/12/31 11:13:55;;;;;;;8.65;1.95;;;12.70;99.90;;;;;;5051885;28;20052;-89
2022/12/31 11:16:54;;;;;;;8.27;2.15;;;12.60;99.90;;;;;;5033935;28;20044;-88
2022/12/31 11:19:42;;;;;;;9.95;2.20;;;12.60;99.90;;;;;;5028179;28;20534;-89
2022/12/31 11:22:11;;;;;;;16.02;2.47;;;12.70;99.90;;;;;;5042559;28;20048;-89
2022/12/31 11:25:14;;;;;;;11.25;2.60;;;12.70;99.90;;;;;;5049281;28;20053;-89
2022/12/31 11:28:01;;;;;;;12.15;2.22;;;12.70;99.90;;;;;;5018316;28;20048;-90
2022/12/31 11:30:54;;;;;;;10.98;2.65;;;12.70;99.90;;;;;;5051240;28;20107;-89
2022/12/31 11:33:38;;;;;;;9.18;2.05;;;12.80;99.90;;;;;;5050666;28;20456;-90
2022/12/31 11:36:24;;;;;;;10.70;2.47;;;12.80;99.90;;;;;;5051080;28;20045;-90
2022/12/31 11:38:52;;;;;;;10.13;2.20;;;12.80;99.90;;;;;;5032391;28;20045;-88
2022/12/31 11:41:38;;;;;;;10.35;2.17;;;12.80;99.90;;;;;;5049163;28;20047;-88
2022/12/31 11:44:23;;;;;;;17.17;2.20;;;12.80;99.90;;;;;;5048738;28;20153;-89
2022/12/31 11:46:51;;;;;;;9.68;2.08;;;12.90;99.90;;;;;;5034071;28;20171;-88
2022/12/31 11:49:31;;;;;;;10.50;2.08;;;12.80;99.90;;;;;;5022451;28;20087;-88
2022/12/31 11:52:12;;;;;;;10.95;2.28;;;12.80;99.90;;;;;;5049963;28;20490;-88
2022/12/31 11:54:52;;;;;;;9.88;2.15;;;12.90;99.90;;;;;;5039756;28;20493;-89
2022/12/31 11:57:25;;;;;;;9.05;2.20;;;12.80;99.90;;;;;;5041592;28;20083;-89
2022/12/31 12:00:14;;;;;;;11.02;2.28;;;12.90;99.90;;;;;;5047744;28;20136;-90
2022/12/31 12:02:44;;;;;;;8.32;2.00;;;13.00;99.90;;;;;;5043084;28;20459;-89
2022/12/31 12:05:17;;;;;;;7.95;1.88;;;13.00;99.90;;;;;;5046877;28;20041;-88
2022/12/31 12:07:43;;;;;;;8.35;2.17;;;13.00;99.90;;;;;;5046745;28;20041;-88
2022/12/31 12:10:50;;;;;;;8.45;1.98;;;13.00;99.90;;;;;;5014858;28;20037;-88
2022/12/31 12:13:16;;;;;;;6.82;1.70;;;13.00;99.90;;;;;;5037779;28;20048;-88
2022/12/31 12:15:53;;;;;;;7.90;1.83;;;13.00;99.90;;;;;;5031240;28;20048;-89
2022/12/31 12:18:45;;;;;;;10.35;1.80;;;13.00;99.90;;;;;;5030198;28;20045;-88
2022/12/31 12:21:21;;;;;;;7.57;1.87;;;13.00;99.90;;;;;;5032585;28;20441;-90
2022/12/31 12:23:55;;;;;;;9.00;1.95;;;13.00;99.90;;;;;;5033257;28;20077;-88
2022/12/31 12:26:25;;;;;;;9.18;2.03;;;13.00;99.90;;;;;;5029393;28;20130;-89
2022/12/31 12:28:51;;;;;;;8.82;1.80;;;13.00;99.90;;;;;;5032852;28;20037;-89
2022/12/31 12:31:20;;;;;;;8.57;2.20;;;13.00;99.90;;;;;;5038783;28;20264;-89
2022/12/31 12:33:47;;;;;;;9.23;2.33;;;13.00;99.90;;;;;;5035305;28;20154;-88
2022/12/31 12:36:15;;;;;;;11.15;2.13;;;13.00;99.90;;;;;;5049011;28;20123;-87
2022/12/31 12:38:42;;;;;;;9.88;2.10;;;13.00;99.90;;;;;;5045728;28;20091;-89
2022/12/31 12:41:19;;;;;;;7.50;2.00;;;12.90;99.90;;;;;;5049423;28;20049;-90
2022/12/31 12:43:45;;;;;;;7.75;2.00;;;13.00;99.90;;;;;;5048361;28;20040;-91
2022/12/31 12:46:26;;;;;;;12.38;2.85;;;12.90;99.90;;;;;;5041561;28;20044;-88
2022/12/31 12:48:56;;;;;;;9.05;2.20;;;12.90;99.90;;;;;;5043963;28;20081;-89
2022/12/31 12:51:53;;;;;;;9.25;1.98;;;12.90;99.90;;;;;;5045548;28;20079;-90
2022/12/31 12:54:37;;;;;;;10.30;2.20;;;12.90;99.90;;;;;;5047761;28;20037;-90
2022/12/31 12:57:18;;;;;;;8.75;2.30;;;12.90;99.90;;;;;;5045663;28;20540;-89
2022/12/31 13:00:08;;;;;;;8.60;2.20;;;12.90;99.90;;;;;;5046880;28;20053;-89
2022/12/31 13:02:36;;;;;;;9.80;2.03;;;12.90;99.90;;;;;;5050167;28;20036;-90
2022/12/31 13:05:09;;;;;;;8.20;2.03;;;12.90;99.90;;;;;;5041959;28;20405;-89
2022/12/31 13:07:55;;;;;;;9.77;2.40;;;12.90;99.90;;;;;;5028143;28;20032;-90
2022/12/31 13:10:32;;;;;;;9.73;2.05;;;12.90;99.90;;;;;;5042632;28;20509;-90
2022/12/31 13:13:12;;;;;;;8.85;2.45;;;12.80;99.90;;;;;;5046096;28;20090;-92
2022/12/31 13:15:59;;;;;;;11.55;2.20;;;12.80;99.90;;;;;;5039887;28;20486;-90
2022/12/31 13:18:36;;;;;;;10.32;2.20;;;12.80;99.90;;;;;;5039543;28;20045;-91
2022/12/31 13:21:34;;;;;;;11.35;2.83;;;12.80;99.90;;;;;;5026875;28;20330;-91
2022/12/31 13:24:06;;;;;;;8.68;2.50;;;12.70;99.90;;;;;;5028040;28;20037;-90
2022/12/31 13:26:40;;;;;;;9.85;2.15;;;12.70;99.90;;;;;;5024049;28;20040;-91